Terminal Aerodrome Forecast
Issued by NWS Twin Cities, MN

Home | Current Version | Previous Version | Graphics & Text | Print | Product List | Glossary On
Versions: 1 2 3 4 5 6 7 8 9 10 11 12 13 14 15 16 17 18 19 20
447
FTUS43 KMPX 262320
TAFEAU
TAF
KEAU 262320Z 2700/2724 24007KT P6SM FEW250
     FM270300 VRB03KT P6SM BKN250
     FM271200 13004KT P6SM -SHRA OVC050 PROB30 2714/2718 -TSRA
      OVC020CB
     FM272100 19009KT P6SM OVC050=

USA.gov is the U.S. government's official web portal to all federal, state and local government web resources and services.